sensor_id;sensor_type;location;lat;lon;timestamp;temperature;humidity
39849;DHT22;25518;47.878;15.914;2023-02-01T00:02:27;3.20;99.90
39849;DHT22;25518;47.878;15.914;2023-02-01T00:05:16;3.30;99.90
39849;DHT22;25518;47.878;15.914;2023-02-01T00:08:06;3.40;99.90
39849;DHT22;25518;47.878;15.914;2023-02-01T00:11:03;3.20;99.90
39849;DHT22;25518;47.878;15.914;2023-02-01T00:13:54;3.30;99.90
39849;DHT22;25518;47.878;15.914;2023-02-01T00:16:44;3.20;99.90
39849;DHT22;25518;47.878;15.914;2023-02-01T00:19:34;3.20;99.90
39849;DHT22;25518;47.878;15.914;2023-02-01T00:22:23;3.10;99.90
39849;DHT22;25518;47.878;15.914;2023-02-01T00:25:12;3.20;99.90
39849;DHT22;25518;47.878;15.914;2023-02-01T00:28:02;3.00;99.90
39849;DHT22;25518;47.878;15.914;2023-02-01T00:31:07;3.10;99.90
39849;DHT22;25518;47.878;15.914;2023-02-01T00:33:57;3.00;99.90
39849;DHT22;25518;47.878;15.914;2023-02-01T00:36:47;3.00;99.90
39849;DHT22;25518;47.878;15.914;2023-02-01T00:39:37;3.10;99.90
39849;DHT22;25518;47.878;15.914;2023-02-01T00:42:26;3.00;99.90
39849;DHT22;25518;47.878;15.914;2023-02-01T00:45:16;3.00;99.90
39849;DHT22;25518;47.878;15.914;2023-02-01T00:48:06;3.10;99.90
39849;DHT22;25518;47.878;15.914;2023-02-01T00:50:59;3.10;99.90
39849;DHT22;25518;47.878;15.914;2023-02-01T00:53:50;3.10;99.90
39849;DHT22;25518;47.878;15.914;2023-02-01T00:56:40;3.10;99.90
39849;DHT22;25518;47.878;15.914;2023-02-01T00:59:30;3.10;99.90
39849;DHT22;25518;47.878;15.914;2023-02-01T01:02:19;3.00;99.90
39849;DHT22;25518;47.878;15.914;2023-02-01T01:05:09;3.00;99.90
39849;DHT22;25518;47.878;15.914;2023-02-01T01:07:58;3.00;99.90
39849;DHT22;25518;47.878;15.914;2023-02-01T01:10:48;3.00;99.90
39849;DHT22;25518;47.878;15.914;2023-02-01T01:13:39;2.90;99.90
39849;DHT22;25518;47.878;15.914;2023-02-01T01:16:30;3.00;99.90
39849;DHT22;25518;47.878;15.914;2023-02-01T01:19:20;2.90;99.90
39849;DHT22;25518;47.878;15.914;2023-02-01T01:22:10;2.90;99.90
39849;DHT22;25518;47.878;15.914;2023-02-01T01:24:59;2.80;99.90
39849;DHT22;25518;47.878;15.914;2023-02-01T01:27:49;2.80;99.90
39849;DHT22;25518;47.878;15.914;2023-02-01T01:30:38;2.80;99.90
39849;DHT22;25518;47.878;15.914;2023-02-01T01:33:28;2.80;99.90
39849;DHT22;25518;47.878;15.914;2023-02-01T01:36:19;2.80;99.90
39849;DHT22;25518;47.878;15.914;2023-02-01T01:39:09;2.80;99.90
39849;DHT22;25518;47.878;15.914;2023-02-01T01:41:59;2.80;99.90
39849;DHT22;25518;47.878;15.914;2023-02-01T01:48:04;2.70;99.90
39849;DHT22;25518;47.878;15.914;2023-02-01T01:51:01;2.80;99.90
39849;DHT22;25518;47.878;15.914;2023-02-01T01:54:00;2.70;99.90
39849;DHT22;25518;47.878;15.914;2023-02-01T01:56:56;2.70;99.90
39849;DHT22;25518;47.878;15.914;2023-02-01T01:59:53;2.80;99.90
39849;DHT22;25518;47.878;15.914;2023-02-01T02:02:47;2.80;99.90
39849;DHT22;25518;47.878;15.914;2023-02-01T02:05:37;2.80;99.90
39849;DHT22;25518;47.878;15.914;2023-02-01T02:08:28;2.80;99.90
39849;DHT22;25518;47.878;15.914;2023-02-01T02:11:18;2.70;99.90
39849;DHT22;25518;47.878;15.914;2023-02-01T02:14:10;2.90;99.90
39849;DHT22;25518;47.878;15.914;2023-02-01T02:17:18;2.80;99.90
39849;DHT22;25518;47.878;15.914;2023-02-01T02:20:38;2.70;99.90
39849;DHT22;25518;47.878;15.914;2023-02-01T02:29:36;2.70;99.90
39849;DHT22;25518;47.878;15.914;2023-02-01T02:32:47;2.70;99.90
39849;DHT22;25518;47.878;15.914;2023-02-01T02:35:44;2.70;99.90
39849;DHT22;25518;47.878;15.914;2023-02-01T02:45:29;2.80;99.90
39849;DHT22;25518;47.878;15.914;2023-02-01T02:51:55;2.60;99.90
39849;DHT22;25518;47.878;15.914;2023-02-01T02:55:07;2.50;99.90
39849;DHT22;25518;47.878;15.914;2023-02-01T02:57:58;2.50;99.90
39849;DHT22;25518;47.878;15.914;2023-02-01T03:18:10;2.80;99.90
39849;DHT22;25518;47.878;15.914;2023-02-01T03:21:06;2.70;99.90
39849;DHT22;25518;47.878;15.914;2023-02-01T03:24:02;3.00;99.90
39849;DHT22;25518;47.878;15.914;2023-02-01T03:26:55;2.90;99.90
39849;DHT22;25518;47.878;15.914;2023-02-01T03:30:02;2.80;99.90
39849;DHT22;25518;47.878;15.914;2023-02-01T03:32:58;2.80;99.90
39849;DHT22;25518;47.878;15.914;2023-02-01T03:35:51;2.80;99.90
39849;DHT22;25518;47.878;15.914;2023-02-01T03:41:49;3.00;99.90
39849;DHT22;25518;47.878;15.914;2023-02-01T03:44:47;3.10;99.90
39849;DHT22;25518;47.878;15.914;2023-02-01T03:47:41;3.20;99.90
39849;DHT22;25518;47.878;15.914;2023-02-01T03:50:35;3.20;99.90
39849;DHT22;25518;47.878;15.914;2023-02-01T03:53:28;3.20;99.90
39849;DHT22;25518;47.878;15.914;2023-02-01T03:56:21;3.20;99.90
39849;DHT22;25518;47.878;15.914;2023-02-01T03:59:12;3.20;99.90
39849;DHT22;25518;47.878;15.914;2023-02-01T04:02:02;3.10;99.90
39849;DHT22;25518;47.878;15.914;2023-02-01T04:04:52;3.10;99.90
39849;DHT22;25518;47.878;15.914;2023-02-01T04:07:41;3.20;99.90
39849;DHT22;25518;47.878;15.914;2023-02-01T04:10:31;3.30;99.90
39849;DHT22;25518;47.878;15.914;2023-02-01T04:13:21;3.20;99.90
39849;DHT22;25518;47.878;15.914;2023-02-01T04:16:10;3.40;99.90
39849;DHT22;25518;47.878;15.914;2023-02-01T04:19:00;3.40;99.90
39849;DHT22;25518;47.878;15.914;2023-02-01T04:21:50;3.20;99.90
39849;DHT22;25518;47.878;15.914;2023-02-01T04:24:39;3.20;99.90
39849;DHT22;25518;47.878;15.914;2023-02-01T04:27:29;3.20;99.90
39849;DHT22;25518;47.878;15.914;2023-02-01T04:30:19;3.10;99.90
39849;DHT22;25518;47.878;15.914;2023-02-01T04:33:08;3.10;99.90
39849;DHT22;25518;47.878;15.914;2023-02-01T04:35:58;3.10;99.90
39849;DHT22;25518;47.878;15.914;2023-02-01T04:38:49;3.10;99.90
39849;DHT22;25518;47.878;15.914;2023-02-01T04:41:38;3.20;99.90
39849;DHT22;25518;47.878;15.914;2023-02-01T04:44:28;3.20;99.90
39849;DHT22;25518;47.878;15.914;2023-02-01T04:47:18;3.20;99.90
39849;DHT22;25518;47.878;15.914;2023-02-01T04:50:08;3.20;99.90
39849;DHT22;25518;47.878;15.914;2023-02-01T04:52:59;3.20;99.90
39849;DHT22;25518;47.878;15.914;2023-02-01T04:55:49;3.10;99.90
39849;DHT22;25518;47.878;15.914;2023-02-01T04:58:39;3.10;99.90
39849;DHT22;25518;47.878;15.914;2023-02-01T05:01:29;3.10;99.90
39849;DHT22;25518;47.878;15.914;2023-02-01T05:04:18;3.00;99.90
39849;DHT22;25518;47.878;15.914;2023-02-01T05:07:08;3.00;99.90
39849;DHT22;25518;47.878;15.914;2023-02-01T05:09:57;2.90;99.90
39849;DHT22;25518;47.878;15.914;2023-02-01T05:12:47;2.90;99.90
39849;DHT22;25518;47.878;15.914;2023-02-01T05:15:56;2.90;99.90
39849;DHT22;25518;47.878;15.914;2023-02-01T05:18:46;2.90;99.90
39849;DHT22;25518;47.878;15.914;2023-02-01T05:21:36;2.80;99.90
39849;DHT22;25518;47.878;15.914;2023-02-01T05:24:25;2.80;99.90
39849;DHT22;25518;47.878;15.914;2023-02-01T05:27:16;2.80;99.90
39849;DHT22;25518;47.878;15.914;2023-02-01T05:30:07;2.70;99.90
39849;DHT22;25518;47.878;15.914;2023-02-01T05:32:57;2.70;99.90
39849;DHT22;25518;47.878;15.914;2023-02-01T05:35:46;2.60;99.90
39849;DHT22;25518;47.878;15.914;2023-02-01T05:38:36;2.70;99.90
39849;DHT22;25518;47.878;15.914;2023-02-01T05:41:26;2.60;99.90
39849;DHT22;25518;47.878;15.914;2023-02-01T05:44:15;2.70;99.90
39849;DHT22;25518;47.878;15.914;2023-02-01T05:47:05;2.70;99.90
39849;DHT22;25518;47.878;15.914;2023-02-01T05:49:55;2.80;99.90
39849;DHT22;25518;47.878;15.914;2023-02-01T05:52:44;2.90;99.90
39849;DHT22;25518;47.878;15.914;2023-02-01T05:55:34;2.80;99.90
39849;DHT22;25518;47.878;15.914;2023-02-01T05:58:24;2.80;99.90
39849;DHT22;25518;47.878;15.914;2023-02-01T06:01:13;2.80;99.90
39849;DHT22;25518;47.878;15.914;2023-02-01T06:04:03;2.80;99.90
39849;DHT22;25518;47.878;15.914;2023-02-01T06:06:52;2.80;99.90
39849;DHT22;25518;47.878;15.914;2023-02-01T06:09:42;2.90;99.90
39849;DHT22;25518;47.878;15.914;2023-02-01T06:12:32;2.90;99.90
39849;DHT22;25518;47.878;15.914;2023-02-01T06:15:22;2.70;99.90
39849;DHT22;25518;47.878;15.914;2023-02-01T06:18:11;2.80;99.90
39849;DHT22;25518;47.878;15.914;2023-02-01T06:21:01;2.80;99.90
39849;DHT22;25518;47.878;15.914;2023-02-01T06:23:51;3.00;99.90
39849;DHT22;25518;47.878;15.914;2023-02-01T06:26:41;3.00;99.90
39849;DHT22;25518;47.878;15.914;2023-02-01T06:29:31;3.00;99.90
39849;DHT22;25518;47.878;15.914;2023-02-01T06:32:20;2.90;99.90
39849;DHT22;25518;47.878;15.914;2023-02-01T06:35:10;2.80;99.90
39849;DHT22;25518;47.878;15.914;2023-02-01T06:38:05;2.90;99.90
39849;DHT22;25518;47.878;15.914;2023-02-01T06:40:57;3.10;99.90
39849;DHT22;25518;47.878;15.914;2023-02-01T06:43:46;2.90;99.90
39849;DHT22;25518;47.878;15.914;2023-02-01T06:46:36;3.30;99.90
39849;DHT22;25518;47.878;15.914;2023-02-01T06:49:26;3.30;99.90
39849;DHT22;25518;47.878;15.914;2023-02-01T06:52:15;3.40;99.90
39849;DHT22;25518;47.878;15.914;2023-02-01T06:55:06;3.50;99.90
39849;DHT22;25518;47.878;15.914;2023-02-01T06:57:56;3.60;99.90
39849;DHT22;25518;47.878;15.914;2023-02-01T07:00:45;3.70;99.90
39849;DHT22;25518;47.878;15.914;2023-02-01T07:03:35;3.80;99.90
39849;DHT22;25518;47.878;15.914;2023-02-01T07:06:25;3.80;99.90
39849;DHT22;25518;47.878;15.914;2023-02-01T07:09:14;3.80;99.90
39849;DHT22;25518;47.878;15.914;2023-02-01T07:12:05;3.80;99.90
39849;DHT22;25518;47.878;15.914;2023-02-01T07:14:54;3.70;99.90
39849;DHT22;25518;47.878;15.914;2023-02-01T07:17:43;3.60;99.90
39849;DHT22;25518;47.878;15.914;2023-02-01T07:20:34;3.60;99.90
39849;DHT22;25518;47.878;15.914;2023-02-01T07:23:24;3.70;99.90
39849;DHT22;25518;47.878;15.914;2023-02-01T07:26:14;3.60;99.90
39849;DHT22;25518;47.878;15.914;2023-02-01T07:29:05;3.50;99.90
39849;DHT22;25518;47.878;15.914;2023-02-01T07:31:55;3.50;99.90
39849;DHT22;25518;47.878;15.914;2023-02-01T07:34:45;3.50;99.90
39849;DHT22;25518;47.878;15.914;2023-02-01T07:37:34;3.60;99.90
39849;DHT22;25518;47.878;15.914;2023-02-01T07:40:24;3.60;99.90
39849;DHT22;25518;47.878;15.914;2023-02-01T07:43:18;3.60;99.90
39849;DHT22;25518;47.878;15.914;2023-02-01T07:46:10;3.50;99.90
39849;DHT22;25518;47.878;15.914;2023-02-01T07:48:59;3.60;99.90
39849;DHT22;25518;47.878;15.914;2023-02-01T07:51:49;3.60;99.90
39849;DHT22;25518;47.878;15.914;2023-02-01T07:54:38;3.60;99.90
39849;DHT22;25518;47.878;15.914;2023-02-01T07:57:28;3.60;99.90
39849;DHT22;25518;47.878;15.914;2023-02-01T08:00:18;3.80;99.90
39849;DHT22;25518;47.878;15.914;2023-02-01T08:03:28;3.90;99.90
39849;DHT22;25518;47.878;15.914;2023-02-01T08:06:18;3.80;99.90
39849;DHT22;25518;47.878;15.914;2023-02-01T10:40:23;2.60;99.90
39849;DHT22;25518;47.878;15.914;2023-02-01T10:43:14;2.60;99.90
39849;DHT22;25518;47.878;15.914;2023-02-01T10:46:04;2.50;99.90
39849;DHT22;25518;47.878;15.914;2023-02-01T10:48:56;2.50;99.90
39849;DHT22;25518;47.878;15.914;2023-02-01T10:51:52;2.40;99.90
39849;DHT22;25518;47.878;15.914;2023-02-01T10:54:43;2.30;99.90
39849;DHT22;25518;47.878;15.914;2023-02-01T10:57:32;2.30;99.90
39849;DHT22;25518;47.878;15.914;2023-02-01T11:00:22;2.30;99.90
39849;DHT22;25518;47.878;15.914;2023-02-01T11:06:27;2.50;99.90
39849;DHT22;25518;47.878;15.914;2023-02-01T11:09:22;2.50;99.90
39849;DHT22;25518;47.878;15.914;2023-02-01T11:12:27;2.60;99.90
39849;DHT22;25518;47.878;15.914;2023-02-01T11:15:21;2.60;99.90
39849;DHT22;25518;47.878;15.914;2023-02-01T11:18:20;2.70;99.90
39849;DHT22;25518;47.878;15.914;2023-02-01T11:21:14;2.70;99.90
39849;DHT22;25518;47.878;15.914;2023-02-01T11:24:06;2.70;99.90
39849;DHT22;25518;47.878;15.914;2023-02-01T11:27:00;2.80;99.90
39849;DHT22;25518;47.878;15.914;2023-02-01T11:29:53;2.70;99.90
39849;DHT22;25518;47.878;15.914;2023-02-01T11:32:47;2.70;99.90
39849;DHT22;25518;47.878;15.914;2023-02-01T11:35:38;2.70;99.90
39849;DHT22;25518;47.878;15.914;2023-02-01T11:38:31;2.70;99.90
39849;DHT22;25518;47.878;15.914;2023-02-01T11:41:25;2.80;99.90
39849;DHT22;25518;47.878;15.914;2023-02-01T11:44:22;2.90;99.90
39849;DHT22;25518;47.878;15.914;2023-02-01T11:47:31;2.80;99.90
39849;DHT22;25518;47.878;15.914;2023-02-01T11:50:30;2.90;99.90
39849;DHT22;25518;47.878;15.914;2023-02-01T12:03:01;3.10;99.90
39849;DHT22;25518;47.878;15.914;2023-02-01T12:05:59;3.00;99.90
39849;DHT22;25518;47.878;15.914;2023-02-01T12:09:41;3.00;99.90
39849;DHT22;25518;47.878;15.914;2023-02-01T12:15:32;2.90;99.90
39849;DHT22;25518;47.878;15.914;2023-02-01T12:25:24;2.60;99.90
39849;DHT22;25518;47.878;15.914;2023-02-01T12:34:25;2.50;99.90
39849;DHT22;25518;47.878;15.914;2023-02-01T12:43:40;2.40;99.90
39849;DHT22;25518;47.878;15.914;2023-02-01T12:46:35;2.40;99.90
39849;DHT22;25518;47.878;15.914;2023-02-01T12:52:49;2.50;99.90
39849;DHT22;25518;47.878;15.914;2023-02-01T12:55:44;2.60;99.90
39849;DHT22;25518;47.878;15.914;2023-02-01T12:58:49;2.60;99.90
39849;DHT22;25518;47.878;15.914;2023-02-01T13:01:46;2.60;99.90
39849;DHT22;25518;47.878;15.914;2023-02-01T13:07:53;2.60;99.90
39849;DHT22;25518;47.878;15.914;2023-02-01T13:10:45;2.60;99.90
39849;DHT22;25518;47.878;15.914;2023-02-01T13:16:54;2.60;99.90
39849;DHT22;25518;47.878;15.914;2023-02-01T13:19:59;2.70;99.90
39849;DHT22;25518;47.878;15.914;2023-02-01T13:22:58;2.60;99.90
39849;DHT22;25518;47.878;15.914;2023-02-01T13:25:51;2.60;99.90
39849;DHT22;25518;47.878;15.914;2023-02-01T13:28:50;2.60;99.90
39849;DHT22;25518;47.878;15.914;2023-02-01T13:34:51;2.70;99.90
39849;DHT22;25518;47.878;15.914;2023-02-01T13:38:01;2.50;99.90
39849;DHT22;25518;47.878;15.914;2023-02-01T13:41:07;2.60;99.90
39849;DHT22;25518;47.878;15.914;2023-02-01T13:55:26;2.20;99.90
39849;DHT22;25518;47.878;15.914;2023-02-01T13:58:22;2.10;99.90
39849;DHT22;25518;47.878;15.914;2023-02-01T14:01:32;2.10;99.90
39849;DHT22;25518;47.878;15.914;2023-02-01T14:04:46;2.10;99.90
39849;DHT22;25518;47.878;15.914;2023-02-01T14:07:40;2.30;99.90
39849;DHT22;25518;47.878;15.914;2023-02-01T14:13:40;2.30;99.90
39849;DHT22;25518;47.878;15.914;2023-02-01T14:16:30;2.20;99.90
39849;DHT22;25518;47.878;15.914;2023-02-01T14:19:23;2.00;99.90
39849;DHT22;25518;47.878;15.914;2023-02-01T14:25:17;2.10;99.90
39849;DHT22;25518;47.878;15.914;2023-02-01T14:28:26;2.20;99.90
39849;DHT22;25518;47.878;15.914;2023-02-01T14:37:37;2.20;99.90
39849;DHT22;25518;47.878;15.914;2023-02-01T14:40:28;2.20;99.90
39849;DHT22;25518;47.878;15.914;2023-02-01T14:43:19;2.30;99.90
39849;DHT22;25518;47.878;15.914;2023-02-01T14:50:12;2.40;99.90
39849;DHT22;25518;47.878;15.914;2023-02-01T14:59:06;2.50;99.90
39849;DHT22;25518;47.878;15.914;2023-02-01T15:01:59;2.50;99.90
39849;DHT22;25518;47.878;15.914;2023-02-01T15:04:55;2.40;99.90
39849;DHT22;25518;47.878;15.914;2023-02-01T15:07:44;2.30;99.90
39849;DHT22;25518;47.878;15.914;2023-02-01T15:10:43;2.40;99.90
39849;DHT22;25518;47.878;15.914;2023-02-01T15:13:34;2.60;99.90
39849;DHT22;25518;47.878;15.914;2023-02-01T15:16:25;2.50;99.90
39849;DHT22;25518;47.878;15.914;2023-02-01T15:19:15;2.60;99.90
39849;DHT22;25518;47.878;15.914;2023-02-01T15:22:04;2.50;99.90
39849;DHT22;25518;47.878;15.914;2023-02-01T15:24:58;2.50;99.90
39849;DHT22;25518;47.878;15.914;2023-02-01T15:27:48;2.40;99.90
39849;DHT22;25518;47.878;15.914;2023-02-01T15:30:37;2.40;99.90
39849;DHT22;25518;47.878;15.914;2023-02-01T15:33:29;2.50;99.90
39849;DHT22;25518;47.878;15.914;2023-02-01T15:36:19;2.40;99.90
39849;DHT22;25518;47.878;15.914;2023-02-01T15:39:27;2.40;99.90
39849;DHT22;25518;47.878;15.914;2023-02-01T15:42:19;2.60;99.90
39849;DHT22;25518;47.878;15.914;2023-02-01T15:45:18;2.60;99.90
39849;DHT22;25518;47.878;15.914;2023-02-01T15:48:16;2.60;99.90
39849;DHT22;25518;47.878;15.914;2023-02-01T15:51:13;2.80;99.90
39849;DHT22;25518;47.878;15.914;2023-02-01T15:54:07;2.80;99.90
39849;DHT22;25518;47.878;15.914;2023-02-01T15:57:00;2.90;99.90
39849;DHT22;25518;47.878;15.914;2023-02-01T15:59:53;2.80;99.90
39849;DHT22;25518;47.878;15.914;2023-02-01T16:02:54;2.60;99.90
39849;DHT22;25518;47.878;15.914;2023-02-01T16:05:44;2.70;99.90
39849;DHT22;25518;47.878;15.914;2023-02-01T16:08:34;2.80;99.90
39849;DHT22;25518;47.878;15.914;2023-02-01T16:11:27;2.60;99.90
39849;DHT22;25518;47.878;15.914;2023-02-01T16:14:18;2.60;99.90
39849;DHT22;25518;47.878;15.914;2023-02-01T16:17:08;2.70;99.90
39849;DHT22;25518;47.878;15.914;2023-02-01T16:19:59;2.90;99.90
39849;DHT22;25518;47.878;15.914;2023-02-01T16:22:48;2.90;99.90
39849;DHT22;25518;47.878;15.914;2023-02-01T16:25:39;3.00;99.90
39849;DHT22;25518;47.878;15.914;2023-02-01T16:28:29;2.70;99.90
39849;DHT22;25518;47.878;15.914;2023-02-01T16:31:23;2.90;99.90
39849;DHT22;25518;47.878;15.914;2023-02-01T16:34:15;2.90;99.90
39849;DHT22;25518;47.878;15.914;2023-02-01T16:37:12;2.90;99.90
39849;DHT22;25518;47.878;15.914;2023-02-01T16:40:01;2.90;99.90
39849;DHT22;25518;47.878;15.914;2023-02-01T16:42:53;2.90;99.90
39849;DHT22;25518;47.878;15.914;2023-02-01T16:45:47;2.70;99.90
39849;DHT22;25518;47.878;15.914;2023-02-01T16:48:37;2.80;99.90
39849;DHT22;25518;47.878;15.914;2023-02-01T16:51:31;2.70;99.90
39849;DHT22;25518;47.878;15.914;2023-02-01T16:54:22;2.60;99.90
39849;DHT22;25518;47.878;15.914;2023-02-01T16:57:13;2.50;99.90
39849;DHT22;25518;47.878;15.914;2023-02-01T17:00:04;2.50;99.90
39849;DHT22;25518;47.878;15.914;2023-02-01T17:02:53;2.40;99.90
39849;DHT22;25518;47.878;15.914;2023-02-01T17:05:46;2.30;99.90
39849;DHT22;25518;47.878;15.914;2023-02-01T17:08:40;2.20;99.90
39849;DHT22;25518;47.878;15.914;2023-02-01T17:11:30;2.20;99.90
39849;DHT22;25518;47.878;15.914;2023-02-01T17:14:20;2.10;99.90
39849;DHT22;25518;47.878;15.914;2023-02-01T17:17:11;2.10;99.90
39849;DHT22;25518;47.878;15.914;2023-02-01T17:20:03;2.10;99.90
39849;DHT22;25518;47.878;15.914;2023-02-01T17:22:53;2.10;99.90
39849;DHT22;25518;47.878;15.914;2023-02-01T17:25:43;2.10;99.90
39849;DHT22;25518;47.878;15.914;2023-02-01T17:28:32;2.20;99.90
39849;DHT22;25518;47.878;15.914;2023-02-01T17:31:22;2.10;99.90
39849;DHT22;25518;47.878;15.914;2023-02-01T17:34:12;2.10;99.90
39849;DHT22;25518;47.878;15.914;2023-02-01T17:37:05;1.80;99.90
39849;DHT22;25518;47.878;15.914;2023-02-01T17:39:55;2.10;99.90
39849;DHT22;25518;47.878;15.914;2023-02-01T17:42:45;2.10;99.90
39849;DHT22;25518;47.878;15.914;2023-02-01T17:45:46;2.10;99.90
39849;DHT22;25518;47.878;15.914;2023-02-01T17:48:41;2.10;99.90
39849;DHT22;25518;47.878;15.914;2023-02-01T17:51:30;2.00;99.90
39849;DHT22;25518;47.878;15.914;2023-02-01T17:54:20;2.10;99.90
39849;DHT22;25518;47.878;15.914;2023-02-01T17:57:12;2.20;99.90
39849;DHT22;25518;47.878;15.914;2023-02-01T18:00:03;2.20;99.90
39849;DHT22;25518;47.878;15.914;2023-02-01T18:02:52;2.10;99.90
39849;DHT22;25518;47.878;15.914;2023-02-01T18:05:42;2.10;99.90
39849;DHT22;25518;47.878;15.914;2023-02-01T18:08:38;2.10;99.90
39849;DHT22;25518;47.878;15.914;2023-02-01T18:11:28;2.10;99.90
39849;DHT22;25518;47.878;15.914;2023-02-01T18:14:21;2.10;99.90
39849;DHT22;25518;47.878;15.914;2023-02-01T18:17:10;2.20;99.90
39849;DHT22;25518;47.878;15.914;2023-02-01T18:20:00;2.20;99.90
39849;DHT22;25518;47.878;15.914;2023-02-01T18:22:51;2.20;99.90
39849;DHT22;25518;47.878;15.914;2023-02-01T18:25:40;2.30;99.90
39849;DHT22;25518;47.878;15.914;2023-02-01T18:28:30;2.30;99.90
39849;DHT22;25518;47.878;15.914;2023-02-01T18:31:25;2.40;99.90
39849;DHT22;25518;47.878;15.914;2023-02-01T18:34:15;2.40;99.90
39849;DHT22;25518;47.878;15.914;2023-02-01T18:37:10;2.30;99.90
39849;DHT22;25518;47.878;15.914;2023-02-01T18:40:00;2.40;99.90
39849;DHT22;25518;47.878;15.914;2023-02-01T18:42:50;2.40;99.90
39849;DHT22;25518;47.878;15.914;2023-02-01T18:45:42;2.40;99.90
39849;DHT22;25518;47.878;15.914;2023-02-01T18:48:33;2.30;99.90
39849;DHT22;25518;47.878;15.914;2023-02-01T18:51:22;2.30;99.90
39849;DHT22;25518;47.878;15.914;2023-02-01T18:54:13;2.10;99.90
39849;DHT22;25518;47.878;15.914;2023-02-01T18:57:02;2.10;99.90
39849;DHT22;25518;47.878;15.914;2023-02-01T18:59:52;2.20;99.90
39849;DHT22;25518;47.878;15.914;2023-02-01T19:02:42;2.20;99.90
39849;DHT22;25518;47.878;15.914;2023-02-01T19:05:32;2.20;99.90
39849;DHT22;25518;47.878;15.914;2023-02-01T19:08:22;2.30;99.90
39849;DHT22;25518;47.878;15.914;2023-02-01T19:11:14;1.50;99.90
39849;DHT22;25518;47.878;15.914;2023-02-01T19:14:03;2.40;99.90
39849;DHT22;25518;47.878;15.914;2023-02-01T19:16:53;2.30;99.90
39849;DHT22;25518;47.878;15.914;2023-02-01T19:19:45;2.20;99.90
39849;DHT22;25518;47.878;15.914;2023-02-01T19:22:37;2.10;99.90
39849;DHT22;25518;47.878;15.914;2023-02-01T19:25:26;2.10;99.90
39849;DHT22;25518;47.878;15.914;2023-02-01T19:28:17;2.20;99.90
39849;DHT22;25518;47.878;15.914;2023-02-01T19:31:07;2.30;99.90
39849;DHT22;25518;47.878;15.914;2023-02-01T19:33:57;2.30;99.90
39849;DHT22;25518;47.878;15.914;2023-02-01T19:36:47;2.40;99.90
39849;DHT22;25518;47.878;15.914;2023-02-01T19:39:38;2.40;99.90
39849;DHT22;25518;47.878;15.914;2023-02-01T19:42:29;2.50;99.90
39849;DHT22;25518;47.878;15.914;2023-02-01T19:45:19;2.50;99.90
39849;DHT22;25518;47.878;15.914;2023-02-01T19:48:09;2.50;99.90
39849;DHT22;25518;47.878;15.914;2023-02-01T19:51:02;2.50;99.90
39849;DHT22;25518;47.878;15.914;2023-02-01T19:53:52;2.50;99.90
39849;DHT22;25518;47.878;15.914;2023-02-01T19:56:42;2.40;99.90
39849;DHT22;25518;47.878;15.914;2023-02-01T19:59:33;2.50;99.90
39849;DHT22;25518;47.878;15.914;2023-02-01T20:02:23;2.50;99.90
39849;DHT22;25518;47.878;15.914;2023-02-01T20:05:17;2.50;99.90
39849;DHT22;25518;47.878;15.914;2023-02-01T20:08:08;2.50;99.90
39849;DHT22;25518;47.878;15.914;2023-02-01T20:10:57;2.50;99.90
39849;DHT22;25518;47.878;15.914;2023-02-01T20:13:47;2.60;99.90
39849;DHT22;25518;47.878;15.914;2023-02-01T20:16:36;2.50;99.90
39849;DHT22;25518;47.878;15.914;2023-02-01T20:19:26;2.60;99.90
39849;DHT22;25518;47.878;15.914;2023-02-01T20:22:16;2.70;99.90
39849;DHT22;25518;47.878;15.914;2023-02-01T20:25:06;2.70;99.90
39849;DHT22;25518;47.878;15.914;2023-02-01T20:28:00;2.70;99.90
39849;DHT22;25518;47.878;15.914;2023-02-01T20:30:49;2.60;99.90
39849;DHT22;25518;47.878;15.914;2023-02-01T20:33:39;2.60;99.90
39849;DHT22;25518;47.878;15.914;2023-02-01T20:36:30;2.70;99.90
39849;DHT22;25518;47.878;15.914;2023-02-01T20:39:20;2.80;99.90
39849;DHT22;25518;47.878;15.914;2023-02-01T20:42:09;2.70;99.90
39849;DHT22;25518;47.878;15.914;2023-02-01T20:44:59;2.80;99.90
39849;DHT22;25518;47.878;15.914;2023-02-01T20:47:49;2.70;99.90
39849;DHT22;25518;47.878;15.914;2023-02-01T20:50:40;2.80;99.90
39849;DHT22;25518;47.878;15.914;2023-02-01T20:53:30;2.90;99.90
39849;DHT22;25518;47.878;15.914;2023-02-01T20:56:20;3.00;99.90
39849;DHT22;25518;47.878;15.914;2023-02-01T20:59:09;2.90;99.90
39849;DHT22;25518;47.878;15.914;2023-02-01T21:02:00;2.90;99.90
39849;DHT22;25518;47.878;15.914;2023-02-01T21:04:50;2.80;99.90
39849;DHT22;25518;47.878;15.914;2023-02-01T21:07:41;2.80;99.90
39849;DHT22;25518;47.878;15.914;2023-02-01T21:10:30;2.90;99.90
39849;DHT22;25518;47.878;15.914;2023-02-01T21:13:21;2.90;99.90
39849;DHT22;25518;47.878;15.914;2023-02-01T21:16:12;2.70;99.90
39849;DHT22;25518;47.878;15.914;2023-02-01T21:19:02;2.70;99.90
39849;DHT22;25518;47.878;15.914;2023-02-01T21:21:52;2.80;99.90
39849;DHT22;25518;47.878;15.914;2023-02-01T21:24:42;2.70;99.90
39849;DHT22;25518;47.878;15.914;2023-02-01T21:27:32;2.50;99.90
39849;DHT22;25518;47.878;15.914;2023-02-01T21:30:22;2.30;99.90
39849;DHT22;25518;47.878;15.914;2023-02-01T21:33:11;2.30;99.90
39849;DHT22;25518;47.878;15.914;2023-02-01T21:36:01;2.40;99.90
39849;DHT22;25518;47.878;15.914;2023-02-01T21:38:52;2.50;99.90
39849;DHT22;25518;47.878;15.914;2023-02-01T21:41:43;2.60;99.90
39849;DHT22;25518;47.878;15.914;2023-02-01T21:44:53;2.70;99.90
39849;DHT22;25518;47.878;15.914;2023-02-01T21:47:43;2.70;99.90
39849;DHT22;25518;47.878;15.914;2023-02-01T21:50:33;2.80;99.90
39849;DHT22;25518;47.878;15.914;2023-02-01T21:53:23;2.70;99.90
39849;DHT22;25518;47.878;15.914;2023-02-01T21:56:13;2.60;99.90
39849;DHT22;25518;47.878;15.914;2023-02-01T21:59:02;2.60;99.90
39849;DHT22;25518;47.878;15.914;2023-02-01T22:01:52;2.80;99.90
39849;DHT22;25518;47.878;15.914;2023-02-01T22:04:42;3.10;99.90
39849;DHT22;25518;47.878;15.914;2023-02-01T22:07:33;3.00;99.90
39849;DHT22;25518;47.878;15.914;2023-02-01T22:10:24;2.90;99.90
39849;DHT22;25518;47.878;15.914;2023-02-01T22:13:14;2.80;99.90
39849;DHT22;25518;47.878;15.914;2023-02-01T22:16:04;2.80;99.90
39849;DHT22;25518;47.878;15.914;2023-02-01T22:18:53;2.70;99.90
39849;DHT22;25518;47.878;15.914;2023-02-01T22:21:44;2.80;99.90
39849;DHT22;25518;47.878;15.914;2023-02-01T22:24:34;2.70;99.90
39849;DHT22;25518;47.878;15.914;2023-02-01T22:27:24;2.60;99.90
39849;DHT22;25518;47.878;15.914;2023-02-01T22:30:14;2.50;99.90
39849;DHT22;25518;47.878;15.914;2023-02-01T22:33:03;2.50;99.90
39849;DHT22;25518;47.878;15.914;2023-02-01T22:35:53;2.60;99.90
39849;DHT22;25518;47.878;15.914;2023-02-01T22:38:43;2.70;99.90
39849;DHT22;25518;47.878;15.914;2023-02-01T22:41:34;2.80;99.90